Time;durP1;ratioP1;P1;durP2;ratioP2;P2;SDS_P1;SDS_P2;PMS_P1;PMS_P2;Temp;Humidity;BMP_temperature;BMP_pressure;BME280_temperature;BME280_humidity;BME280_pressure;Samples;Min_cycle;Max_cycle;Signal;HPM_P1;HPM_P2
2024/01/10 00:02:17;;;;;;;;;;;;;;;4.93;100.00;100525.38;5041788;28;20015;-80
2024/01/10 00:04:42;;;;;;;;;;;;;;;5.32;100.00;100531.19;5041979;28;20007;-81
2024/01/10 00:07:10;;;;;;;;;;;;;;;5.56;100.00;100530.91;5042230;28;20019;-80
2024/01/10 00:09:35;;;;;;;;;;;;;;;5.71;100.00;100524.66;5042034;28;20024;-80
2024/01/10 00:12:01;;;;;;;;;;;;;;;5.85;100.00;100536.75;5041109;28;20031;-80
2024/01/10 00:14:26;;;;;;;;;;;;;;;5.94;100.00;100524.38;5042098;28;19917;-80
2024/01/10 00:16:51;;;;;;;;;;;;;;;6.03;100.00;100517.28;5041668;28;19921;-79
2024/01/10 00:19:16;;;;;;;;;;;;;;;6.11;100.00;100520.69;5041569;28;19928;-79
2024/01/10 00:21:41;;;;;;;;;;;;;;;6.18;100.00;100517.09;5041677;28;19929;-79
2024/01/10 00:24:07;;;;;;;;;;;;;;;6.24;100.00;100516.13;5041963;28;20407;-80
2024/01/10 00:26:32;;;;;;;;;;;;;;;6.29;100.00;100520.44;5040682;28;19917;-82
2024/01/10 00:28:57;;;;;;;;;;;;;;;6.32;99.11;100512.50;5041879;28;19917;-81
2024/01/10 00:31:22;;;;;;;;;;;;;;;6.36;97.70;100511.56;5041453;28;19921;-82
2024/01/10 00:33:48;;;;;;;;;;;;;;;6.41;96.89;100506.22;5041816;28;19921;-81
2024/01/10 00:36:13;;;;;;;;;;;;;;;6.45;96.12;100509.72;5042278;28;19921;-82
2024/01/10 00:38:39;;;;;;;;;;;;;;;6.49;95.72;100511.41;5032472;28;19916;-83
2024/01/10 00:41:25;;;;;;;;;;;;;;;6.52;94.47;100503.44;5042320;28;19921;-90
2024/01/10 00:43:50;;;;;;;;;;;;;;;6.57;93.81;100506.88;5041865;28;19917;-80
2024/01/10 00:46:15;;;;;;;;;;;;;;;6.58;92.92;100495.47;5023708;28;20433;-80
2024/01/10 00:48:41;;;;;;;;;;;;;;;6.62;92.65;100491.91;5042045;28;20364;-82
2024/01/10 00:51:08;;;;;;;;;;;;;;;6.64;92.62;100500.63;5041775;28;19921;-82
2024/01/10 00:53:34;;;;;;;;;;;;;;;6.71;92.42;100493.50;5041257;28;19921;-80
2024/01/10 00:55:59;;;;;;;;;;;;;;;6.71;91.78;100496.16;5041721;28;20005;-84
2024/01/10 00:58:24;;;;;;;;;;;;;;;6.75;91.60;100495.22;5040251;28;20446;-84
2024/01/10 01:00:49;;;;;;;;;;;;;;;6.76;91.31;100502.19;5021734;28;20008;-79
2024/01/10 01:03:15;;;;;;;;;;;;;;;6.77;90.79;100495.19;5021308;28;20020;-80
2024/01/10 01:05:41;;;;;;;;;;;;;;;6.81;90.03;100500.38;5012495;28;19917;-80
2024/01/10 01:08:06;;;;;;;;;;;;;;;6.82;90.01;100502.09;5021885;28;19921;-80
2024/01/10 06:13:29;;;;;;;;;;;;;;;6.45;95.84;100443.91;5038126;28;19963;-78
2024/01/10 06:15:55;;;;;;;;;;;;;;;6.50;95.61;100442.06;5043703;28;19964;-84
2024/01/10 06:18:20;;;;;;;;;;;;;;;6.53;95.21;100447.28;5026086;28;19917;-81
2024/01/10 06:20:45;;;;;;;;;;;;;;;6.55;94.45;100446.34;5044114;28;19978;-84
2024/01/10 06:23:10;;;;;;;;;;;;;;;6.58;94.11;100447.22;5044101;28;19921;-82
2024/01/10 06:25:35;;;;;;;;;;;;;;;6.61;93.96;100453.28;5042411;28;19925;-88
2024/01/10 06:28:01;;;;;;;;;;;;;;;6.65;93.81;100455.00;5043515;28;19921;-88
2024/01/10 06:30:26;;;;;;;;;;;;;;;6.69;93.30;100456.66;5043989;28;19916;-88
2024/01/10 06:32:51;;;;;;;;;;;;;;;6.71;93.31;100457.50;5043926;28;20302;-87
2024/01/10 06:35:18;;;;;;;;;;;;;;;6.75;92.87;100455.72;5042375;28;20202;-88
2024/01/10 06:37:44;;;;;;;;;;;;;;;6.76;92.67;100452.16;5043537;28;19916;-81
2024/01/10 06:40:09;;;;;;;;;;;;;;;6.78;91.48;100446.88;5042542;28;19925;-86
2024/01/10 06:42:35;;;;;;;;;;;;;;;6.81;91.09;100449.44;5043786;28;19917;-86
2024/01/10 06:45:00;;;;;;;;;;;;;;;6.82;90.47;100451.19;5043195;28;20291;-83
2024/01/10 06:47:25;;;;;;;;;;;;;;;6.84;90.23;100442.34;5043699;28;19924;-84
2024/01/10 06:49:51;;;;;;;;;;;;;;;6.87;89.83;100444.09;5043510;28;19929;-81
2024/01/10 06:52:16;;;;;;;;;;;;;;;6.89;89.58;100455.44;5043634;28;19917;-81
2024/01/10 06:54:41;;;;;;;;;;;;;;;6.91;89.54;100451.91;5043148;28;19916;-79
2024/01/10 06:57:07;;;;;;;;;;;;;;;6.95;89.11;100451.84;5041765;28;19917;-79
2024/01/10 06:59:32;;;;;;;;;;;;;;;6.97;89.10;100450.06;5043066;28;20002;-79
2024/01/10 07:01:57;;;;;;;;;;;;;;;6.98;88.78;100450.03;5043180;28;19917;-82
2024/01/10 07:04:23;;;;;;;;;;;;;;;6.98;88.74;100449.16;5043479;28;19917;-80
2024/01/10 07:06:49;;;;;;;;;;;;;;;7.01;88.22;100452.63;5042671;28;19959;-82
2024/01/10 07:09:19;;;;;;;;;;;;;;;7.03;87.99;100452.59;5042583;28;19924;-80
2024/01/10 07:11:44;;;;;;;;;;;;;;;7.02;86.97;100442.94;5040687;28;20008;-78
2024/01/10 07:14:10;;;;;;;;;;;;;;;6.98;86.07;100436.84;5042921;28;20058;-79
2024/01/10 07:16:35;;;;;;;;;;;;;;;7.01;85.38;100443.84;5043097;28;19920;-77
2024/01/10 07:19:01;;;;;;;;;;;;;;;7.28;78.93;100445.09;5042598;28;20004;-79
2024/01/10 07:21:37;;;;;;;;;;;;;;;7.49;73.60;100450.88;5042933;28;19916;-91
2024/01/10 07:24:03;;;;;;;;;;;;;;;7.28;74.33;100455.66;5041467;28;19924;-81
2024/01/10 07:26:28;;;;;;;;;;;;;;;7.19;75.31;100461.09;5041345;28;20040;-83
2024/01/10 07:28:53;;;;;;;;;;;;;;;7.18;76.38;100461.97;5042340;28;19949;-77
2024/01/10 07:31:19;;;;;;;;;;;;;;;7.17;77.10;100470.81;5042720;28;19932;-79
2024/01/10 07:33:44;;;;;;;;;;;;;;;7.17;78.17;100465.53;5042783;28;19921;-81
2024/01/10 07:36:09;;;;;;;;;;;;;;;7.16;78.37;100467.28;5042320;28;19924;-81
2024/01/10 07:38:34;;;;;;;;;;;;;;;7.18;78.87;100472.50;5041941;28;20291;-79
2024/01/10 07:40:59;;;;;;;;;;;;;;;7.20;79.54;100473.38;5041130;28;20336;-82
2024/01/10 07:43:26;;;;;;;;;;;;;;;7.19;79.86;100479.53;5042701;28;20455;-79
2024/01/10 07:45:52;;;;;;;;;;;;;;;7.19;79.86;100469.84;5042791;28;19917;-80
2024/01/10 07:48:18;;;;;;;;;;;;;;;7.18;79.90;100475.16;5042429;28;20276;-83
2024/01/10 07:50:43;;;;;;;;;;;;;;;7.17;79.50;100473.44;5042050;28;19917;-79
2024/01/10 07:53:08;;;;;;;;;;;;;;;7.18;79.24;100485.69;5041901;28;20422;-83
2024/01/10 07:55:33;;;;;;;;;;;;;;;7.18;79.12;100483.94;5023604;28;19917;-82
2024/01/10 07:57:59;;;;;;;;;;;;;;;7.21;79.07;100485.66;5042209;28;19963;-86
2024/01/10 09:04:13;;;;;;;;;;;;;;;7.38;77.68;100493.25;5042764;28;20329;-78
2024/01/10 09:06:38;;;;;;;;;;;;;;;7.37;77.33;100489.75;5045142;28;19999;-86
2024/01/10 09:09:03;;;;;;;;;;;;;;;6.51;75.39;100488.53;5045021;28;19929;-77
2024/01/10 09:11:28;;;;;;;;;;;;;;;5.93;78.10;100501.56;5043944;28;20383;-79
2024/01/10 09:13:54;;;;;;;;;;;;;;;5.74;80.23;100506.19;5045361;28;20399;-79
2024/01/10 09:16:19;;;;;;;;;;;;;;;5.61;81.36;100505.44;5044191;28;19921;-78
2024/01/10 09:18:44;;;;;;;;;;;;;;;5.50;83.05;100512.56;5044782;28;20291;-78
2024/01/10 09:21:10;;;;;;;;;;;;;;;5.42;84.12;100504.78;5045740;28;19961;-81
2024/01/10 09:23:35;;;;;;;;;;;;;;;5.34;85.12;100509.22;5044860;28;19917;-77
2024/01/10 09:26:00;;;;;;;;;;;;;;;5.27;86.14;100515.44;5045516;28;20689;-80
2024/01/10 09:28:26;;;;;;;;;;;;;;;5.24;86.87;100518.97;5044984;28;19921;-79
2024/01/10 09:30:51;;;;;;;;;;;;;;;5.22;87.26;100512.88;5043401;28;20020;-84
2024/01/10 09:33:16;;;;;;;;;;;;;;;5.16;87.93;100512.91;5044223;28;20326;-82
2024/01/10 09:35:42;;;;;;;;;;;;;;;5.16;88.55;100518.19;5027339;28;19921;-79
2024/01/10 09:38:07;;;;;;;;;;;;;;;5.12;88.58;100523.47;5044775;28;19925;-79
2024/01/10 09:40:32;;;;;;;;;;;;;;;5.05;88.85;100526.13;5044365;28;19921;-81
2024/01/10 09:42:57;;;;;;;;;;;;;;;5.02;88.89;100530.56;5044498;28;19963;-79
2024/01/10 09:45:23;;;;;;;;;;;;;;;4.99;89.45;100528.81;5042961;28;19927;-79
2024/01/10 09:47:50;;;;;;;;;;;;;;;4.93;90.12;100528.00;5044641;28;20358;-80
2024/01/10 09:50:15;;;;;;;;;;;;;;;4.90;89.90;100535.03;5044433;28;19970;-80
2024/01/10 09:52:42;;;;;;;;;;;;;;;4.89;90.07;100533.28;5044348;28;19992;-78
2024/01/10 09:55:08;;;;;;;;;;;;;;;4.87;90.07;100537.69;5026548;28;19916;-80
2024/01/10 09:57:36;;;;;;;;;;;;;;;4.87;90.39;100529.78;5026994;28;19927;-86
2024/01/10 10:00:04;;;;;;;;;;;;;;;4.81;90.94;100529.84;5043054;28;19968;-84
2024/01/10 10:02:31;;;;;;;;;;;;;;;4.78;91.10;100521.97;5043993;28;19925;-84
2024/01/10 10:05:03;;;;;;;;;;;;;;;4.77;91.53;100529.88;5044030;28;19917;-85
2024/01/10 10:07:28;;;;;;;;;;;;;;;4.76;91.74;100530.78;5026269;28;20024;-85
2024/01/10 10:09:56;;;;;;;;;;;;;;;4.76;92.07;100518.50;5043757;28;20518;-83
2024/01/10 10:12:21;;;;;;;;;;;;;;;4.73;92.56;100523.78;5044212;28;19917;-83
2024/01/10 10:14:46;;;;;;;;;;;;;;;4.93;92.75;100521.00;5042799;28;19924;-81
2024/01/10 10:17:18;;;;;;;;;;;;;;;5.19;91.89;100523.41;5044001;28;19921;-81
2024/01/10 10:19:47;;;;;;;;;;;;;;;4.90;93.39;100523.66;5026678;28;19923;-85
2024/01/10 10:22:13;;;;;;;;;;;;;;;4.80;94.27;100525.44;5043811;28;19925;-82
2024/01/10 10:24:38;;;;;;;;;;;;;;;4.76;94.84;100525.53;5043613;28;20439;-81
2024/01/10 10:27:11;;;;;;;;;;;;;;;4.70;95.50;100522.03;5044437;28;19921;-82
2024/01/10 10:29:37;;;;;;;;;;;;;;;4.71;95.96;100528.19;5041417;28;19967;-82
2024/01/10 10:32:02;;;;;;;;;;;;;;;4.70;95.95;100529.03;5025792;28;19917;-82
2024/01/10 10:34:30;;;;;;;;;;;;;;;4.70;96.21;100529.91;5043636;28;20376;-83
2024/01/10 10:36:56;;;;;;;;;;;;;;;4.70;96.46;100523.78;5024657;28;19924;-79
2024/01/10 10:39:21;;;;;;;;;;;;;;;4.68;96.30;100536.06;5043260;28;20351;-83
2024/01/10 10:41:47;;;;;;;;;;;;;;;4.65;96.16;100538.72;5025423;28;20347;-80
2024/01/10 10:44:15;;;;;;;;;;;;;;;4.66;96.50;100543.06;5041936;28;19924;-79
2024/01/10 10:46:41;;;;;;;;;;;;;;;4.63;96.54;100551.00;5042195;28;19924;-81
2024/01/10 10:49:09;;;;;;;;;;;;;;;4.61;96.59;100545.75;5043899;28;19943;-82
2024/01/10 10:51:34;;;;;;;;;;;;;;;4.60;96.51;100541.38;5043243;28;19925;-80
2024/01/10 10:54:00;;;;;;;;;;;;;;;4.58;96.55;100539.63;5043404;28;19924;-81
2024/01/10 10:56:29;;;;;;;;;;;;;;;4.57;96.76;100543.16;5043568;28;19923;-80
2024/01/10 10:58:56;;;;;;;;;;;;;;;4.57;96.53;100543.16;5025325;28;19917;-80
2024/01/10 11:01:22;;;;;;;;;;;;;;;4.55;96.38;100543.16;5041995;28;19916;-81
2024/01/10 11:03:48;;;;;;;;;;;;;;;4.53;96.66;100531.78;5024328;28;19921;-81
2024/01/10 11:06:13;;;;;;;;;;;;;;;4.50;96.96;100532.69;5043056;28;19940;-80
2024/01/10 11:08:53;;;;;;;;;;;;;;;4.48;97.42;100529.19;5043115;28;19964;-81
2024/01/10 11:11:38;;;;;;;;;;;;;;;4.50;97.43;100526.53;5043390;28;19917;-79
2024/01/10 11:14:12;;;;;;;;;;;;;;;4.52;97.35;100528.28;5042356;28;19914;-79
2024/01/10 11:16:47;;;;;;;;;;;;;;;4.48;97.39;100531.81;5041738;28;19928;-82
2024/01/10 11:19:38;;;;;;;;;;;;;;;4.48;97.54;100534.44;5042506;28;20356;-79
2024/01/10 11:22:18;;;;;;;;;;;;;;;4.47;97.62;100527.44;5043041;28;19921;-92
2024/01/10 11:24:44;;;;;;;;;;;;;;;4.45;97.89;100523.97;5024884;28;19968;-85
2024/01/10 11:27:13;;;;;;;;;;;;;;;4.49;97.68;100530.06;5043447;28;19960;-85
2024/01/10 11:29:42;;;;;;;;;;;;;;;4.50;97.92;100537.03;5041860;28;20023;-83
2024/01/10 11:32:13;;;;;;;;;;;;;;;4.45;97.74;100531.84;5042527;28;19921;-86
2024/01/10 11:34:39;;;;;;;;;;;;;;;4.46;98.08;100530.94;5042759;28;19928;-80
2024/01/10 11:37:11;;;;;;;;;;;;;;;4.45;98.08;100528.31;5042686;28;19925;-86
2024/01/10 11:39:37;;;;;;;;;;;;;;;4.44;98.17;100531.84;5042109;28;19924;-80
2024/01/10 11:42:02;;;;;;;;;;;;;;;4.42;98.35;100529.22;5042223;28;19921;-79
2024/01/10 11:44:28;;;;;;;;;;;;;;;4.42;98.23;100528.34;5040951;28;19963;-79
2024/01/10 11:46:54;;;;;;;;;;;;;;;4.38;98.42;100522.25;5042430;28;20295;-79
2024/01/10 11:49:20;;;;;;;;;;;;;;;4.40;98.54;100523.09;5041946;28;19917;-79
2024/01/10 11:51:46;;;;;;;;;;;;;;;4.36;98.77;100519.63;5042253;28;19927;-80
2024/01/10 11:54:12;;;;;;;;;;;;;;;4.36;98.99;100518.75;5042498;28;19971;-82
2024/01/10 11:56:41;;;;;;;;;;;;;;;4.35;99.31;100517.00;5041908;28;19925;-81
2024/01/10 11:59:13;;;;;;;;;;;;;;;4.39;99.49;100517.84;5042225;28;19928;-82
2024/01/10 12:01:39;;;;;;;;;;;;;;;4.38;99.69;100516.13;5041992;28;19913;-81
2024/01/10 12:04:11;;;;;;;;;;;;;;;4.35;99.82;100506.53;5041774;28;19933;-83
2024/01/10 12:06:36;;;;;;;;;;;;;;;4.35;99.75;100512.63;5023797;28;20383;-79
2024/01/10 12:09:08;;;;;;;;;;;;;;;4.36;99.76;100509.13;5042639;28;19916;-83
2024/01/10 12:11:38;;;;;;;;;;;;;;;4.33;99.67;100513.53;5024780;28;19917;-80
2024/01/10 12:14:03;;;;;;;;;;;;;;;4.34;99.92;100503.03;5041116;28;19920;-81
2024/01/10 12:16:32;;;;;;;;;;;;;;;4.35;100.00;100503.91;5040421;28;19917;-77
2024/01/10 12:18:57;;;;;;;;;;;;;;;4.34;100.00;100510.00;5042226;28;20095;-80
2024/01/10 12:21:22;;;;;;;;;;;;;;;4.31;100.00;100499.56;5041648;28;19972;-79
2024/01/10 12:23:48;;;;;;;;;;;;;;;4.34;100.00;100500.41;5041657;28;19916;-79
2024/01/10 12:26:14;;;;;;;;;;;;;;;4.30;100.00;100498.66;5040948;28;19917;-79
2024/01/10 12:28:39;;;;;;;;;;;;;;;4.29;100.00;100499.56;5041731;28;19979;-83
2024/01/10 12:31:07;;;;;;;;;;;;;;;4.30;100.00;100501.28;5023008;28;19921;-80
2024/01/10 12:33:32;;;;;;;;;;;;;;;4.34;100.00;100499.50;5041609;28;19924;-81
2024/01/10 12:36:09;;;;;;;;;;;;;;;4.67;100.00;100502.81;5041869;28;19921;-80
2024/01/10 12:38:34;;;;;;;;;;;;;;;5.18;100.00;100505.88;5041943;28;20407;-79
2024/01/10 12:41:00;;;;;;;;;;;;;;;5.45;100.00;100498.63;5041976;28;19960;-80
2024/01/10 12:43:26;;;;;;;;;;;;;;;5.61;100.00;100497.56;5041423;28;20366;-82
2024/01/10 12:46:11;;;;;;;;;;;;;;;5.74;100.00;100494.78;5022804;28;19917;-83
2024/01/10 12:48:37;;;;;;;;;;;;;;;5.88;100.00;100492.00;5040597;28;20308;-80
2024/01/10 12:51:05;;;;;;;;;;;;;;;5.98;100.00;100478.75;5023752;28;19917;-81
2024/01/10 12:53:31;;;;;;;;;;;;;;;6.07;100.00;100482.16;5041745;28;19996;-79
2024/01/10 12:55:56;;;;;;;;;;;;;;;6.16;100.00;100487.31;5041347;28;20016;-79
2024/01/10 12:58:22;;;;;;;;;;;;;;;6.23;100.00;100478.41;5023327;28;19917;-79
2024/01/10 13:00:47;;;;;;;;;;;;;;;6.28;100.00;100481.84;5040615;28;19921;-79
2024/01/10 13:03:13;;;;;;;;;;;;;;;6.35;100.00;100482.63;5041333;28;19983;-79
2024/01/10 13:05:38;;;;;;;;;;;;;;;6.38;100.00;100485.22;5041109;28;19924;-80
2024/01/10 13:08:05;;;;;;;;;;;;;;;6.44;100.00;100487.75;5023796;28;19921;-81
2024/01/10 13:10:31;;;;;;;;;;;;;;;6.45;100.00;100478.97;5044981;28;19917;-80
2024/01/10 13:12:56;;;;;;;;;;;;;;;6.52;100.00;100480.63;5027081;28;19928;-82
2024/01/10 13:15:21;;;;;;;;;;;;;;;6.57;100.00;100479.69;5025767;28;19927;-79
2024/01/10 13:17:46;;;;;;;;;;;;;;;6.59;100.00;100470.88;5045537;28;19924;-78
2024/01/10 13:20:14;;;;;;;;;;;;;;;6.63;100.00;100483.09;5045249;28;19921;-79
2024/01/10 13:22:40;;;;;;;;;;;;;;;6.64;100.00;100478.72;5044208;28;19995;-80
2024/01/10 13:25:05;;;;;;;;;;;;;;;6.67;100.00;100470.72;5044871;28;20032;-82
2024/01/10 13:27:31;;;;;;;;;;;;;;;6.69;100.00;100472.47;5027221;28;19927;-82
2024/01/10 13:29:57;;;;;;;;;;;;;;;6.73;100.00;100466.25;5025413;28;19917;-80
2024/01/10 13:32:22;;;;;;;;;;;;;;;6.73;100.00;100465.38;5044881;28;19921;-81
2024/01/10 13:34:47;;;;;;;;;;;;;;;6.76;100.00;100467.09;5045130;28;19921;-82
2024/01/10 13:37:12;;;;;;;;;;;;;;;6.83;100.00;100468.72;5010693;28;19943;-81
2024/01/10 13:39:39;;;;;;;;;;;;;;;6.83;100.00;100466.97;5044430;28;20280;-82
2024/01/10 13:42:04;;;;;;;;;;;;;;;6.86;100.00;100468.69;5044773;28;19944;-79
2024/01/10 13:44:30;;;;;;;;;;;;;;;6.89;100.00;100471.25;5043756;28;20373;-79
2024/01/10 13:46:56;;;;;;;;;;;;;;;6.93;100.00;100466.84;5044506;28;19917;-78
2024/01/10 13:49:21;;;;;;;;;;;;;;;6.93;100.00;100465.06;5044448;28;19920;-82
2024/01/10 13:51:46;;;;;;;;;;;;;;;6.97;100.00;100477.25;5026753;28;19916;-82
2024/01/10 13:54:11;;;;;;;;;;;;;;;6.99;99.88;100482.50;5044794;28;19925;-80
2024/01/10 13:56:39;;;;;;;;;;;;;;;7.00;99.28;100481.63;5044369;28;19966;-78
2024/01/10 13:59:04;;;;;;;;;;;;;;;7.01;98.90;100473.69;5026350;28;20364;-81
2024/01/10 14:01:30;;;;;;;;;;;;;;;7.02;98.44;100477.19;5041958;28;19918;-83
2024/01/10 14:03:55;;;;;;;;;;;;;;;7.03;97.89;100477.16;5043874;28;19928;-83
2024/01/10 14:06:20;;;;;;;;;;;;;;;7.05;97.70;100479.78;5043263;28;19917;-82
2024/01/10 14:08:48;;;;;;;;;;;;;;;7.05;97.70;100488.56;5044341;28;20265;-81
2024/01/10 14:11:14;;;;;;;;;;;;;;;7.09;98.08;100484.97;5044285;28;19975;-84
2024/01/10 14:13:39;;;;;;;;;;;;;;;7.11;97.82;100490.22;5043996;28;19921;-80
2024/01/10 14:16:04;;;;;;;;;;;;;;;7.12;97.97;100493.75;5042844;28;19964;-80
2024/01/10 14:18:29;;;;;;;;;;;;;;;7.14;97.81;100490.16;5043990;28;19986;-82
2024/01/10 14:20:55;;;;;;;;;;;;;;;7.15;97.98;100491.91;5025839;28;19921;-84
2024/01/10 14:23:20;;;;;;;;;;;;;;;7.19;98.18;100490.09;5044055;28;19923;-82
2024/01/10 14:25:45;;;;;;;;;;;;;;;7.20;98.40;100491.84;5043912;28;19990;-80
2024/01/10 14:28:10;;;;;;;;;;;;;;;7.21;98.57;100493.56;5026065;28;19982;-81
2024/01/10 14:30:36;;;;;;;;;;;;;;;7.20;98.31;100497.09;5042450;28;20376;-81
2024/01/10 14:33:01;;;;;;;;;;;;;;;7.22;98.12;100497.94;5025994;28;19921;-84
2024/01/10 14:35:26;;;;;;;;;;;;;;;7.23;98.33;100490.00;5043962;28;19913;-84
2024/01/10 14:37:53;;;;;;;;;;;;;;;7.25;97.84;100497.88;5043262;28;20431;-83
2024/01/10 14:40:18;;;;;;;;;;;;;;;7.24;97.36;100490.88;5043378;28;20154;-83
2024/01/10 14:42:43;;;;;;;;;;;;;;;7.24;96.99;100491.75;5043905;28;19924;-83
2024/01/10 14:45:10;;;;;;;;;;;;;;;7.25;97.15;100490.84;5024434;28;20387;-84
2024/01/10 14:47:35;;;;;;;;;;;;;;;7.28;96.98;100493.41;5042634;28;19942;-82
2024/01/10 14:50:01;;;;;;;;;;;;;;;7.29;96.82;100491.63;5043528;28;19920;-82
2024/01/10 14:52:26;;;;;;;;;;;;;;;7.30;97.11;100485.47;5043960;28;19925;-83
2024/01/10 14:54:52;;;;;;;;;;;;;;;7.34;97.43;100489.81;5042892;28;19921;-81
2024/01/10 14:57:21;;;;;;;;;;;;;;;7.34;97.47;100483.66;5025290;28;20068;-82
2024/01/10 14:59:46;;;;;;;;;;;;;;;7.35;97.54;100491.53;5041217;28;19927;-82
2024/01/10 15:02:12;;;;;;;;;;;;;;;7.37;97.94;100484.50;5025409;28;19933;-81
2024/01/10 15:04:40;;;;;;;;;;;;;;;7.37;97.59;100484.50;5043407;28;19932;-79
2024/01/10 15:07:05;;;;;;;;;;;;;;;7.39;97.89;100482.69;5025066;28;19920;-86
2024/01/10 15:09:31;;;;;;;;;;;;;;;7.41;98.05;100493.19;5024840;28;19917;-83
2024/01/10 15:11:56;;;;;;;;;;;;;;;7.41;97.81;100498.47;5043428;28;20363;-81
2024/01/10 15:14:22;;;;;;;;;;;;;;;6.58;96.07;100492.84;5023763;28;19921;-79
2024/01/10 15:16:47;;;;;;;;;;;;;;;6.02;98.04;100494.50;5042728;28;20011;-86
2024/01/10 15:19:12;;;;;;;;;;;;;;;5.81;99.26;100507.00;5042594;28;19917;-84
2024/01/10 15:21:38;;;;;;;;;;;;;;;5.71;100.00;100510.59;5042530;28;19927;-84
2024/01/10 15:24:03;;;;;;;;;;;;;;;5.57;100.00;100518.66;5042547;28;20426;-81
2024/01/10 15:26:29;;;;;;;;;;;;;;;5.51;100.00;100518.72;5042399;28;19928;-81
2024/01/10 15:28:54;;;;;;;;;;;;;;;5.43;100.00;100521.44;5042178;28;19921;-81
2024/01/10 15:31:19;;;;;;;;;;;;;;;5.37;100.00;100518.84;5041065;28;20362;-82
2024/01/10 15:33:45;;;;;;;;;;;;;;;5.54;100.00;100519.56;5042209;28;19917;-81
2024/01/10 15:36:10;;;;;;;;;;;;;;;5.38;100.00;100515.34;5042775;28;19920;-83
2024/01/10 15:38:36;;;;;;;;;;;;;;;5.30;100.00;100525.03;5024458;28;20292;-82
2024/01/10 15:41:02;;;;;;;;;;;;;;;5.25;100.00;100522.50;5042094;28;20261;-81
2024/01/10 15:43:28;;;;;;;;;;;;;;;5.16;100.00;100528.69;5024924;28;19917;-83
2024/01/10 15:45:53;;;;;;;;;;;;;;;5.16;100.00;100518.19;5040940;28;19970;-82
2024/01/10 15:48:18;;;;;;;;;;;;;;;5.13;100.00;100520.81;5042076;28;20012;-81
2024/01/10 15:50:43;;;;;;;;;;;;;;;5.06;100.00;100527.91;5041946;28;19921;-79
2024/01/10 15:53:09;;;;;;;;;;;;;;;5.02;100.00;100518.28;5042509;28;19916;-81
2024/01/10 15:55:36;;;;;;;;;;;;;;;5.02;100.00;100527.94;5042433;28;19921;-82
2024/01/10 15:58:02;;;;;;;;;;;;;;;4.98;100.00;100528.81;5041766;28;19925;-83
2024/01/10 16:00:27;;;;;;;;;;;;;;;4.96;100.00;100538.47;5040969;28;20030;-90
2024/01/10 16:02:52;;;;;;;;;;;;;;;4.96;100.00;100536.72;5024257;28;19982;-85
2024/01/10 16:05:18;;;;;;;;;;;;;;;4.94;100.00;100537.63;5041970;28;19940;-85
2024/01/10 16:07:43;;;;;;;;;;;;;;;4.95;100.00;100547.25;5041691;28;19917;-81
2024/01/10 16:10:08;;;;;;;;;;;;;;;4.94;100.00;100553.38;5042086;28;19921;-84
2024/01/10 16:12:34;;;;;;;;;;;;;;;4.93;100.00;100551.63;5040056;28;19933;-78
2024/01/10 16:14:59;;;;;;;;;;;;;;;4.87;100.00;100547.31;5038960;28;19921;-83
2024/01/10 16:17:24;;;;;;;;;;;;;;;4.86;100.00;100559.56;5041954;28;19925;-81
2024/01/10 16:19:51;;;;;;;;;;;;;;;4.86;100.00;100562.19;5040564;28;19917;-83
2024/01/10 16:22:17;;;;;;;;;;;;;;;4.80;100.00;100559.59;5041621;28;20016;-79
2024/01/10 16:24:42;;;;;;;;;;;;;;;4.79;100.00;100552.63;5040974;28;20008;-81
2024/01/10 16:27:07;;;;;;;;;;;;;;;4.79;100.00;100557.00;5039735;28;20264;-83
2024/01/10 16:29:32;;;;;;;;;;;;;;;4.78;100.00;100558.75;5040281;28;19921;-83
2024/01/10 16:31:58;;;;;;;;;;;;;;;4.73;100.00;100564.03;5039540;28;19921;-79
2024/01/10 16:34:23;;;;;;;;;;;;;;;4.75;100.00;100565.78;5023333;28;19921;-81
2024/01/10 16:36:48;;;;;;;;;;;;;;;4.75;100.00;100569.25;5024215;28;19917;-81
2024/01/10 16:39:13;;;;;;;;;;;;;;;4.73;100.00;100573.66;5041218;28;19975;-86
2024/01/10 16:41:38;;;;;;;;;;;;;;;4.71;100.00;100572.81;5023833;28;19921;-84
2024/01/10 16:44:04;;;;;;;;;;;;;;;4.71;100.00;100578.06;5041938;28;20006;-88
2024/01/10 16:46:30;;;;;;;;;;;;;;;4.66;100.00;100577.19;5044605;28;19917;-84
2024/01/10 16:48:56;;;;;;;;;;;;;;;4.69;100.00;100578.06;5044681;28;19971;-83
2024/01/10 16:51:21;;;;;;;;;;;;;;;4.63;100.00;100580.72;5043926;28;19960;-79
2024/01/10 16:53:46;;;;;;;;;;;;;;;4.65;100.00;100585.97;5044195;28;19920;-88
2024/01/10 16:56:12;;;;;;;;;;;;;;;4.62;100.00;100585.97;5044880;28;20675;-82
2024/01/10 16:58:37;;;;;;;;;;;;;;;4.62;100.00;100592.09;5027401;28;19924;-80
2024/01/10 17:01:02;;;;;;;;;;;;;;;4.63;100.00;100587.75;5044470;28;20387;-79
2024/01/10 17:03:28;;;;;;;;;;;;;;;4.62;100.00;100588.59;5045363;28;19960;-77
2024/01/10 17:05:53;;;;;;;;;;;;;;;4.57;100.00;100595.66;5025281;28;19924;-81
2024/01/10 17:08:22;;;;;;;;;;;;;;;4.59;100.00;100588.63;5027363;28;19975;-79
2024/01/10 17:10:47;;;;;;;;;;;;;;;4.53;100.00;100598.28;5043422;28;19925;-79
2024/01/10 17:13:12;;;;;;;;;;;;;;;4.55;100.00;100604.38;5045168;28;20275;-81
2024/01/10 17:15:37;;;;;;;;;;;;;;;4.55;100.00;100609.63;5043747;28;19963;-85
2024/01/10 17:18:04;;;;;;;;;;;;;;;4.55;100.00;100609.63;5044831;28;20358;-82
2024/01/10 17:20:29;;;;;;;;;;;;;;;4.57;100.00;100611.38;5044804;28;20286;-84
2024/01/10 17:22:55;;;;;;;;;;;;;;;4.55;100.00;100608.78;5042728;28;19917;-78
2024/01/10 17:25:22;;;;;;;;;;;;;;;4.54;100.00;100613.13;5044391;28;19920;-85
2024/01/10 17:27:48;;;;;;;;;;;;;;;4.51;100.00;100617.53;5042958;28;19924;-84
2024/01/10 17:30:13;;;;;;;;;;;;;;;4.53;100.00;100621.00;5043492;28;19978;-85
2024/01/10 17:32:39;;;;;;;;;;;;;;;4.52;100.00;100619.28;5042834;28;19929;-79
2024/01/10 17:35:04;;;;;;;;;;;;;;;4.46;100.00;100624.56;5043756;28;19924;-81
2024/01/10 17:37:29;;;;;;;;;;;;;;;4.50;100.00;100616.66;5044497;28;19916;-81
2024/01/10 17:39:54;;;;;;;;;;;;;;;4.49;100.00;100625.41;5044475;28;19917;-79
2024/01/10 17:42:20;;;;;;;;;;;;;;;4.48;100.00;100618.44;5045119;28;20276;-83
2024/01/10 17:44:45;;;;;;;;;;;;;;;4.46;100.00;100620.16;5021938;28;21393;-80
2024/01/10 17:47:10;;;;;;;;;;;;;;;4.47;100.00;100624.56;5025580;28;20308;-82
2024/01/10 17:49:36;;;;;;;;;;;;;;;4.49;100.00;100628.03;5043989;28;19928;-79
2024/01/10 17:52:02;;;;;;;;;;;;;;;4.46;100.00;100638.53;5043967;28;19920;-83
2024/01/10 17:54:27;;;;;;;;;;;;;;;4.41;100.00;100635.06;5040896;28;19943;-77
2024/01/10 17:56:52;;;;;;;;;;;;;;;4.46;100.00;100641.16;5044183;28;19997;-79
2024/01/10 17:59:17;;;;;;;;;;;;;;;4.47;100.00;100642.06;5041400;28;19921;-80
2024/01/10 18:01:42;;;;;;;;;;;;;;;4.37;100.00;100635.94;5043345;28;19928;-79
2024/01/10 18:04:08;;;;;;;;;;;;;;;4.40;100.00;100637.69;5044335;28;20334;-81
2024/01/10 18:06:34;;;;;;;;;;;;;;;4.41;100.00;100645.56;5026948;28;20293;-82
2024/01/10 18:08:59;;;;;;;;;;;;;;;4.42;100.00;100649.06;5043702;28;19970;-81
2024/01/10 18:11:24;;;;;;;;;;;;;;;4.41;100.00;100642.09;5026333;28;19964;-79
2024/01/10 18:13:49;;;;;;;;;;;;;;;4.40;100.00;100641.19;5043958;28;20371;-84
2024/01/10 18:16:15;;;;;;;;;;;;;;;4.38;100.00;100640.31;5043026;28;20307;-80
2024/01/10 18:18:40;;;;;;;;;;;;;;;4.38;100.00;100642.94;5043599;28;20402;-80
2024/01/10 18:21:05;;;;;;;;;;;;;;;4.39;100.00;100642.09;5025335;28;20375;-80
2024/01/10 18:23:31;;;;;;;;;;;;;;;4.37;100.00;100646.44;5026314;28;20374;-79
2024/01/10 18:25:56;;;;;;;;;;;;;;;4.39;100.00;100639.47;5042585;28;19928;-84
2024/01/10 18:28:21;;;;;;;;;;;;;;;4.36;100.00;100650.84;5042638;28;19979;-81
2024/01/10 18:30:47;;;;;;;;;;;;;;;4.35;100.00;100643.81;5040540;28;20024;-81
2024/01/10 18:33:14;;;;;;;;;;;;;;;4.33;100.00;100642.97;5026109;28;19918;-79
2024/01/10 18:35:39;;;;;;;;;;;;;;;4.34;100.00;100657.84;5024567;28;19924;-80
2024/01/10 18:38:04;;;;;;;;;;;;;;;4.35;100.00;100659.56;5042840;28;19929;-82
2024/01/10 18:40:29;;;;;;;;;;;;;;;4.33;100.00;100665.72;5043530;28;19925;-84
2024/01/10 18:42:55;;;;;;;;;;;;;;;4.35;100.00;100670.06;5025613;28;19913;-82
2024/01/10 18:45:20;;;;;;;;;;;;;;;4.32;100.00;100672.72;5042600;28;20296;-84